TAF AMD CYRT 220310Z 2203/2212 07007KT P6SM SCT005 OVC010
TEMPO 2203/2212 2SM BR OVC005
PROB40 2203/2208 1/2SM FZFG VV002 RMK NXT FCST BY 220600Z
From batch tds/tafs/production/2024/5/22/h03_m20_tafs.cache.xml.gz
Issued (24 days ago)
Forecasts
2203/2212 7007KT 6+SM SCT500 OVC1000

---
fcst_time_to: '2024-05-22T12:00:00Z'
sky_condition:
- - sky_cover: SCT
    cloud_base_ft_agl: '500'
- - sky_cover: OVC
    cloud_base_ft_agl: '1000'
wind_speed_kt: '7'
fcst_time_from: '2024-05-22T03:00:00Z'
wind_dir_degrees: '70'
visibility_statute_mi: 6+

TEMPO 2203/2212 2SM OVC500

---
wx_string: BR
fcst_time_to: '2024-05-22T12:00:00Z'
sky_condition:
- sky_cover: OVC
  cloud_base_ft_agl: '500'
fcst_time_from: '2024-05-22T03:00:00Z'
change_indicator: TEMPO
visibility_statute_mi: '2'

OVX

---
wx_string: FZFG
probability: '40'
vert_vis_ft: '200'
fcst_time_to: '2024-05-22T08:00:00Z'
sky_condition:
- sky_cover: OVX
fcst_time_from: '2024-05-22T03:00:00Z'
change_indicator: PROB
visibility_statute_mi: '0.5'

talk